Time;durP1;ratioP1;P1;durP2;ratioP2;P2;SDS_P1;SDS_P2;PMS_P1;PMS_P2;Temp;Humidity;BMP_temperature;BMP_pressure;BME280_temperature;BME280_humidity;BME280_pressure;Samples;Min_cycle;Max_cycle;Signal;HPM_P1;HPM_P2
2022/12/11 00:00:44;;;;;;;1999.90;999.90;;;-0.50;99.90;;;;;;5047308;28;20457;-68
2022/12/11 00:03:12;;;;;;;1999.90;999.90;;;-0.60;99.90;;;;;;5044168;28;20486;-68
2022/12/11 00:05:39;;;;;;;1999.90;999.90;;;-0.60;99.90;;;;;;5045863;28;20466;-68
2022/12/11 00:08:06;;;;;;;1999.90;999.90;;;-0.50;99.90;;;;;;5043963;28;20474;-67
2022/12/11 00:10:33;;;;;;;1999.90;999.90;;;-0.50;99.90;;;;;;5044902;28;20462;-68
2022/12/11 00:12:59;;;;;;;1999.90;999.90;;;-0.60;99.90;;;;;;5044359;28;20490;-68
2022/12/11 00:15:26;;;;;;;1999.90;999.90;;;-0.60;99.90;;;;;;5043841;28;20458;-67
2022/12/11 00:17:53;;;;;;;1999.90;999.90;;;-0.60;99.90;;;;;;5043795;28;20450;-68
2022/12/11 00:20:21;;;;;;;1999.90;999.90;;;-0.70;99.90;;;;;;5044866;28;20454;-68
2022/12/11 00:22:48;;;;;;;1999.90;999.90;;;-0.70;99.90;;;;;;5046570;28;20486;-68
2022/12/11 00:25:15;;;;;;;1999.90;999.90;;;-0.70;99.90;;;;;;5043236;28;21105;-68
2022/12/11 00:27:42;;;;;;;1999.90;999.90;;;-0.70;99.90;;;;;;5046753;28;20486;-69
2022/12/11 00:30:10;;;;;;;1999.90;999.90;;;-0.70;99.90;;;;;;5043910;28;20462;-69
2022/12/11 00:32:36;;;;;;;1999.90;999.90;;;-0.80;99.90;;;;;;5044936;28;20488;-69
2022/12/11 00:35:04;;;;;;;1999.90;999.90;;;-0.70;99.90;;;;;;5045091;28;20470;-68
2022/12/11 00:37:32;;;;;;;1999.90;999.90;;;-0.50;99.90;;;;;;5044882;28;20960;-68
2022/12/11 00:39:58;;;;;;;1999.90;999.90;;;-0.60;99.90;;;;;;5045526;28;20470;-68
2022/12/11 00:42:25;;;;;;;1999.90;999.90;;;-0.70;99.90;;;;;;5046368;28;20497;-68
2022/12/11 00:44:53;;;;;;;1999.90;999.90;;;-0.70;99.90;;;;;;5044994;28;20462;-68
2022/12/11 00:47:20;;;;;;;1999.90;999.90;;;-0.80;99.90;;;;;;5048001;28;20482;-68
2022/12/11 00:49:47;;;;;;;1999.90;999.90;;;-0.80;99.90;;;;;;5051186;28;20837;-68
2022/12/11 00:52:16;;;;;;;1999.90;999.90;;;-0.80;99.90;;;;;;5051571;28;20555;-69
2022/12/11 00:54:44;;;;;;;1999.90;999.90;;;-0.80;99.90;;;;;;5047075;28;20458;-68
2022/12/11 00:57:11;;;;;;;1999.90;999.90;;;-0.70;99.90;;;;;;5051662;28;20831;-68
2022/12/11 00:59:38;;;;;;;1999.90;999.90;;;-0.80;99.90;;;;;;5051627;28;20958;-66
2022/12/11 01:02:05;;;;;;;1999.90;999.90;;;-0.80;99.90;;;;;;5051389;28;21013;-68
2022/12/11 01:04:31;;;;;;;1999.90;999.90;;;-0.80;99.90;;;;;;5051844;28;20827;-68
2022/12/11 01:06:58;;;;;;;1999.90;999.90;;;-0.80;99.90;;;;;;5050702;28;20489;-67
2022/12/11 01:12:10;;;;;;;1999.90;999.90;;;-0.80;99.90;;;;;;5050362;28;20496;-69
2022/12/11 01:14:37;;;;;;;1999.90;999.90;;;-0.80;99.90;;;;;;5049814;28;20473;-68
2022/12/11 01:17:04;;;;;;;1999.90;999.90;;;-0.80;99.90;;;;;;5051163;28;20462;-68
2022/12/11 01:19:31;;;;;;;1999.90;999.90;;;-0.90;99.90;;;;;;5050951;28;20981;-67
2022/12/11 01:21:59;;;;;;;1999.90;999.90;;;-0.90;99.90;;;;;;5051562;28;20871;-68
2022/12/11 01:24:26;;;;;;;1999.90;999.90;;;-0.90;99.90;;;;;;5049510;28;20458;-67
2022/12/11 01:26:53;;;;;;;1999.90;999.90;;;-0.90;99.90;;;;;;5052494;28;20485;-68
2022/12/11 01:29:21;;;;;;;1999.90;999.90;;;-1.00;99.90;;;;;;5050519;28;20462;-68
2022/12/11 01:31:47;;;;;;;1999.90;999.90;;;-1.00;99.90;;;;;;5050800;28;20516;-68
2022/12/11 01:34:14;;;;;;;1999.90;999.90;;;-0.90;99.90;;;;;;5050498;28;20847;-67
2022/12/11 01:36:41;;;;;;;1999.90;999.90;;;-0.90;99.90;;;;;;5051699;28;20453;-68
2022/12/11 01:39:08;;;;;;;1999.90;999.90;;;-0.90;99.90;;;;;;5051203;28;20958;-68
2022/12/11 01:41:35;;;;;;;1999.90;999.90;;;-0.80;99.90;;;;;;5050666;28;20872;-68
2022/12/11 01:44:04;;;;;;;1999.90;999.90;;;-0.80;99.90;;;;;;5050154;28;20470;-68
2022/12/11 01:46:35;;;;;;;1999.90;999.90;;;-0.80;99.90;;;;;;5049746;28;20819;-68
2022/12/11 01:49:04;;;;;;;1999.90;999.90;;;-0.80;99.90;;;;;;5050053;28;20857;-68
2022/12/11 01:51:35;;;;;;;1999.90;999.90;;;-0.80;99.90;;;;;;5053926;28;20446;-68
2022/12/11 01:54:07;;;;;;;1999.90;999.90;;;-0.80;99.90;;;;;;5051018;28;20462;-68
2022/12/11 01:56:37;;;;;;;1999.90;999.90;;;-0.80;99.90;;;;;;5050834;28;20458;-68
2022/12/11 01:59:06;;;;;;;1999.90;999.90;;;-0.70;99.90;;;;;;5048045;28;20461;-67
2022/12/11 02:01:39;;;;;;;1999.90;999.90;;;-0.80;99.90;;;;;;5050464;28;20450;-68
2022/12/11 02:04:07;;;;;;;1999.90;999.90;;;-0.80;99.90;;;;;;5050995;28;20461;-68
2022/12/11 02:06:36;;;;;;;1999.90;999.90;;;-0.70;99.90;;;;;;5055321;28;20454;-69
2022/12/11 02:09:05;;;;;;;1999.90;999.90;;;-0.80;99.90;;;;;;5062299;28;20482;-68
2022/12/11 02:11:40;;;;;;;1999.90;999.90;;;-0.80;99.90;;;;;;5062446;28;20458;-68
2022/12/11 02:14:17;;;;;;;1999.90;999.90;;;-0.80;99.90;;;;;;5061169;28;20460;-69
2022/12/11 02:16:50;;;;;;;1999.90;999.90;;;-0.60;99.90;;;;;;5061842;28;21187;-67
2022/12/11 02:19:30;;;;;;;1999.90;999.90;;;-0.70;99.90;;;;;;5056796;28;20958;-68
2022/12/11 02:22:02;;;;;;;1999.90;999.90;;;-0.60;99.90;;;;;;5051619;28;20485;-67
2022/12/11 02:24:54;;;;;;;1999.90;999.90;;;-0.60;99.90;;;;;;5054759;28;20926;-69
2022/12/11 02:27:30;;;;;;;1999.90;999.90;;;-0.70;99.90;;;;;;5054866;28;20490;-68
2022/12/11 02:30:02;;;;;;;1999.90;999.90;;;-0.40;99.90;;;;;;5050963;28;20450;-69
2022/12/11 02:32:35;;;;;;;1999.90;999.90;;;-0.80;99.90;;;;;;5054899;28;20478;-68
2022/12/11 02:35:09;;;;;;;1999.90;999.90;;;-0.70;99.90;;;;;;5053988;28;20454;-68
2022/12/11 02:37:37;;;;;;;1999.90;999.90;;;-0.70;99.90;;;;;;5053494;28;20462;-69
2022/12/11 02:40:10;;;;;;;1999.90;999.90;;;-0.60;99.90;;;;;;5053990;28;20520;-68
2022/12/11 02:42:39;;;;;;;1999.90;999.90;;;-0.70;99.90;;;;;;5052668;28;20482;-67
2022/12/11 02:45:10;;;;;;;1999.90;999.90;;;-0.70;99.90;;;;;;5051864;28;20909;-69
2022/12/11 02:47:39;;;;;;;1999.90;999.90;;;-0.60;99.90;;;;;;5053519;28;20478;-68
2022/12/11 02:50:11;;;;;;;1999.90;999.90;;;-0.20;99.90;;;;;;5053063;28;20466;-68
2022/12/11 02:52:41;;;;;;;1999.90;999.90;;;-0.60;99.90;;;;;;5052769;28;20497;-68
2022/12/11 02:55:11;;;;;;;1999.90;999.90;;;-0.60;99.90;;;;;;5051003;28;20484;-67
2022/12/11 02:57:43;;;;;;;1999.90;999.90;;;-0.60;99.90;;;;;;5053993;28;20454;-68
2022/12/11 03:00:12;;;;;;;1999.90;999.90;;;-0.70;99.90;;;;;;5052892;28;20458;-67
2022/12/11 03:02:41;;;;;;;1999.90;999.90;;;-0.70;99.90;;;;;;5052822;28;20482;-69
2022/12/11 03:05:09;;;;;;;1999.90;999.90;;;-0.80;99.90;;;;;;5052624;28;20462;-68
2022/12/11 03:07:39;;;;;;;1999.90;999.90;;;-0.80;99.90;;;;;;5049856;28;20561;-68
2022/12/11 03:10:07;;;;;;;1999.90;999.90;;;-0.70;99.90;;;;;;5052986;28;20807;-67
2022/12/11 03:12:38;;;;;;;1999.90;999.90;;;-0.60;99.90;;;;;;5052763;28;20485;-69
2022/12/11 03:15:08;;;;;;;1999.90;999.90;;;-0.70;99.90;;;;;;5052341;28;20462;-69
2022/12/11 03:17:45;;;;;;;1999.90;999.90;;;-0.70;99.90;;;;;;5052389;28;21292;-68
2022/12/11 03:20:20;;;;;;;1999.90;999.90;;;-0.70;99.90;;;;;;5050410;28;20461;-67
2022/12/11 03:22:54;;;;;;;1999.90;999.90;;;-0.70;99.90;;;;;;5052143;28;20482;-67
2022/12/11 03:25:24;;;;;;;1999.90;999.90;;;-0.60;99.90;;;;;;5050145;28;20458;-68
2022/12/11 03:27:58;;;;;;;1999.90;999.90;;;-0.50;99.90;;;;;;5047876;28;20515;-69
2022/12/11 03:30:28;;;;;;;1999.90;999.90;;;-0.60;99.90;;;;;;5050162;28;20462;-68
2022/12/11 03:33:00;;;;;;;1999.90;999.90;;;-0.70;99.90;;;;;;5051471;28;20474;-68
2022/12/11 03:35:33;;;;;;;1999.90;999.90;;;-0.70;99.90;;;;;;5049927;28;20470;-69
2022/12/11 03:38:03;;;;;;;1999.90;999.90;;;-0.80;99.90;;;;;;5048451;28;20470;-68
2022/12/11 03:40:33;;;;;;;1999.90;999.90;;;-0.80;99.90;;;;;;5050483;28;20469;-69
2022/12/11 03:43:01;;;;;;;1999.90;999.90;;;-0.80;99.90;;;;;;5051876;28;21006;-69
2022/12/11 03:45:30;;;;;;;1999.90;999.90;;;-0.80;99.90;;;;;;5051012;28;20836;-67
2022/12/11 03:48:01;;;;;;;1999.90;999.90;;;-0.80;99.90;;;;;;5053697;28;20489;-69
2022/12/11 03:50:30;;;;;;;1999.90;999.90;;;-0.70;99.90;;;;;;5051399;28;20470;-68
2022/12/11 03:52:58;;;;;;;1999.90;999.90;;;-0.50;99.90;;;;;;5051941;28;21029;-68
2022/12/11 03:55:26;;;;;;;1999.90;999.90;;;-0.60;99.90;;;;;;5052020;28;20462;-68
2022/12/11 03:57:53;;;;;;;1999.90;999.90;;;-0.70;99.90;;;;;;5053442;28;20454;-67
2022/12/11 04:00:21;;;;;;;1999.90;999.90;;;-0.60;99.90;;;;;;5052302;28;20462;-66
2022/12/11 04:03:11;;;;;;;1999.90;999.90;;;-0.70;99.90;;;;;;5052884;28;20496;-69
2022/12/11 04:05:36;;;;;;;1999.90;999.90;;;-0.70;99.90;;;;;;5052093;28;20446;-65
2022/12/11 04:08:03;;;;;;;1999.90;999.90;;;-0.80;99.90;;;;;;5053394;28;20564;-70
2022/12/11 04:10:30;;;;;;;1999.90;999.90;;;-0.80;99.90;;;;;;5052000;28;20458;-68
2022/12/11 04:12:57;;;;;;;1999.90;999.90;;;-0.80;99.90;;;;;;5051289;28;20482;-68
2022/12/11 04:15:22;;;;;;;1999.90;999.90;;;-0.80;99.90;;;;;;5051300;28;20462;-68
2022/12/11 04:26:04;;;;;;;1999.90;999.90;;;-0.90;99.90;;;;;;5051846;28;20453;-69
2022/12/11 04:28:31;;;;;;;1999.90;999.90;;;-0.90;99.90;;;;;;5055601;28;20927;-69
2022/12/11 04:30:58;;;;;;;1999.90;999.90;;;-0.90;99.90;;;;;;5054605;28;20500;-68
2022/12/11 04:33:25;;;;;;;1999.90;999.90;;;-0.90;99.90;;;;;;5055825;28;20481;-68
2022/12/11 04:35:51;;;;;;;1999.90;999.90;;;-0.90;99.90;;;;;;5056373;28;20462;-68
2022/12/11 04:38:20;;;;;;;1999.90;999.90;;;-0.90;99.90;;;;;;5056940;28;20453;-69
2022/12/11 04:40:46;;;;;;;1999.90;999.90;;;-0.90;99.90;;;;;;5056090;28;20466;-70
2022/12/11 04:43:13;;;;;;;1999.90;999.90;;;-0.90;99.90;;;;;;5056488;28;20493;-69
2022/12/11 04:45:40;;;;;;;1999.90;999.90;;;-1.00;99.90;;;;;;5054458;28;20478;-68
2022/12/11 04:48:07;;;;;;;1999.90;999.90;;;-0.90;99.90;;;;;;5056476;28;20488;-68
2022/12/11 04:50:34;;;;;;;1999.90;999.90;;;-0.90;99.90;;;;;;5055812;28;20485;-68
2022/12/11 04:53:00;;;;;;;1999.90;999.90;;;-0.90;99.90;;;;;;5054147;28;20489;-67
2022/12/11 04:55:29;;;;;;;1999.90;999.90;;;-0.90;99.90;;;;;;5056646;28;20968;-69
2022/12/11 04:57:55;;;;;;;1999.90;999.90;;;-0.60;99.90;;;;;;5052548;28;20462;-67
2022/12/11 05:00:22;;;;;;;1999.90;999.90;;;-0.90;99.90;;;;;;5054138;28;20465;-67
2022/12/11 05:02:49;;;;;;;1999.90;999.90;;;-0.90;99.90;;;;;;5055205;28;21045;-67
2022/12/11 05:05:16;;;;;;;1999.90;999.90;;;-0.90;99.90;;;;;;5054212;28;20855;-67
2022/12/11 05:07:43;;;;;;;1999.90;999.90;;;-0.70;99.90;;;;;;5057245;28;20458;-67
2022/12/11 05:10:10;;;;;;;1999.90;999.90;;;-0.90;99.90;;;;;;5055271;28;20462;-67
2022/12/11 05:12:38;;;;;;;1999.90;999.90;;;-1.00;99.90;;;;;;5055554;28;20477;-68
2022/12/11 05:15:06;;;;;;;1999.90;999.90;;;-1.00;99.90;;;;;;5054967;28;20484;-67
2022/12/11 05:17:34;;;;;;;1999.90;999.90;;;-1.00;99.90;;;;;;5055217;28;20512;-68
2022/12/11 05:20:00;;;;;;;1999.90;999.90;;;-0.80;99.90;;;;;;5055538;28;20462;-68
2022/12/11 05:22:29;;;;;;;1999.90;999.90;;;-0.90;99.90;;;;;;5054817;28;20482;-68
2022/12/11 05:24:56;;;;;;;1999.90;999.90;;;-0.70;99.90;;;;;;5051525;28;20485;-68
2022/12/11 05:27:23;;;;;;;1999.90;999.90;;;-0.70;99.90;;;;;;5054716;28;20458;-67
2022/12/11 05:29:51;;;;;;;1999.90;999.90;;;-0.70;99.90;;;;;;5055083;28;20482;-68
2022/12/11 05:32:18;;;;;;;1999.90;999.90;;;-0.80;99.90;;;;;;5052954;28;21028;-68
2022/12/11 05:34:45;;;;;;;1999.90;999.90;;;-0.90;99.90;;;;;;5054704;28;20462;-68
2022/12/11 05:37:12;;;;;;;1999.90;999.90;;;-0.90;99.90;;;;;;5056144;28;20470;-68
2022/12/11 05:39:39;;;;;;;1999.90;999.90;;;-1.00;99.90;;;;;;5056127;28;20462;-68
2022/12/11 05:42:05;;;;;;;1999.90;999.90;;;-1.10;99.90;;;;;;5055375;28;20929;-68
2022/12/11 05:44:32;;;;;;;1999.90;999.90;;;-1.10;99.90;;;;;;5052861;28;20463;-68
2022/12/11 05:47:00;;;;;;;1999.90;999.90;;;-1.10;99.90;;;;;;5052307;28;20468;-68
2022/12/11 05:49:27;;;;;;;1999.90;999.90;;;-1.00;99.90;;;;;;5054248;28;20571;-68
2022/12/11 05:51:54;;;;;;;1999.90;999.90;;;-0.90;99.90;;;;;;5054645;28;20507;-68
2022/12/11 05:54:21;;;;;;;1999.90;999.90;;;-1.00;99.90;;;;;;5053589;28;20471;-70
2022/12/11 05:56:50;;;;;;;1999.90;999.90;;;-1.00;99.90;;;;;;5054598;28;20833;-67
2022/12/11 05:59:18;;;;;;;1999.90;999.90;;;-1.10;99.90;;;;;;5052029;28;20514;-68
2022/12/11 06:01:45;;;;;;;1999.90;999.90;;;-1.10;99.90;;;;;;5054137;28;20458;-67
2022/12/11 06:04:13;;;;;;;1999.90;999.90;;;-1.10;99.90;;;;;;5055619;28;20458;-68
2022/12/11 06:06:42;;;;;;;1999.90;999.90;;;-1.00;99.90;;;;;;5053147;28;20455;-68
2022/12/11 06:09:13;;;;;;;1999.90;999.90;;;-1.00;99.90;;;;;;5055965;28;20485;-68
2022/12/11 06:11:40;;;;;;;1999.90;999.90;;;-1.10;99.90;;;;;;5054860;28;20458;-68
2022/12/11 06:14:07;;;;;;;1999.90;999.90;;;-1.00;99.90;;;;;;5056087;28;20465;-68
2022/12/11 06:16:33;;;;;;;1999.90;999.90;;;-1.00;99.90;;;;;;5054708;28;20474;-68
2022/12/11 06:19:00;;;;;;;1999.90;999.90;;;-1.00;99.90;;;;;;5052304;28;20465;-67
2022/12/11 06:21:31;;;;;;;1999.90;999.90;;;-0.90;99.90;;;;;;5053381;28;20502;-67
2022/12/11 06:23:59;;;;;;;1999.90;999.90;;;-1.00;99.90;;;;;;5055996;28;20523;-68
2022/12/11 06:26:27;;;;;;;1999.90;999.90;;;-1.00;99.90;;;;;;5055369;28;20567;-69
2022/12/11 06:28:54;;;;;;;1999.90;999.90;;;-0.90;99.90;;;;;;5055310;28;20481;-67
2022/12/11 06:31:21;;;;;;;1999.90;999.90;;;-0.90;99.90;;;;;;5053427;28;20473;-69
2022/12/11 06:33:48;;;;;;;1999.90;999.90;;;-1.00;99.90;;;;;;5054359;28;20478;-68
2022/12/11 06:36:17;;;;;;;1999.90;999.90;;;-1.00;99.90;;;;;;5053604;28;20489;-69
2022/12/11 06:38:46;;;;;;;1999.90;999.90;;;-1.00;99.90;;;;;;5051266;28;20480;-68
2022/12/11 06:41:13;;;;;;;1999.90;999.90;;;-1.10;99.90;;;;;;5054355;28;20519;-68
2022/12/11 06:43:41;;;;;;;1999.90;999.90;;;-1.10;99.90;;;;;;5053380;28;20508;-69
2022/12/11 06:46:09;;;;;;;1999.90;999.90;;;-1.10;99.90;;;;;;5052380;28;20464;-68
2022/12/11 06:48:37;;;;;;;1999.90;999.90;;;-1.10;99.90;;;;;;5054411;28;20483;-70
2022/12/11 06:51:07;;;;;;;1999.90;999.90;;;-1.10;99.90;;;;;;5051109;28;20462;-68
2022/12/11 06:53:35;;;;;;;1999.90;999.90;;;-1.20;99.90;;;;;;5054616;28;20490;-68
2022/12/11 06:56:04;;;;;;;1999.90;999.90;;;-1.20;99.90;;;;;;5050407;28;20866;-68
2022/12/11 06:58:31;;;;;;;1999.90;999.90;;;-1.20;99.90;;;;;;5051030;28;20461;-69
2022/12/11 07:00:58;;;;;;;1999.90;999.90;;;-1.20;99.90;;;;;;5056521;28;20462;-68
2022/12/11 07:03:25;;;;;;;1999.90;999.90;;;-1.10;99.90;;;;;;5054702;28;20486;-69
2022/12/11 07:05:51;;;;;;;1999.90;999.90;;;-0.90;99.90;;;;;;5053247;28;20462;-68
2022/12/11 07:08:18;;;;;;;1999.90;999.90;;;-1.00;99.90;;;;;;5053426;28;20466;-67
2022/12/11 07:10:45;;;;;;;1999.90;999.90;;;-1.00;99.90;;;;;;5054941;28;20458;-68
2022/12/11 07:13:13;;;;;;;1999.90;999.90;;;-0.60;99.90;;;;;;5050924;28;20486;-68
2022/12/11 07:15:40;;;;;;;1999.90;999.90;;;-1.10;99.90;;;;;;5053282;28;20466;-68
2022/12/11 07:18:06;;;;;;;1999.90;999.90;;;-1.20;99.90;;;;;;5054602;28;20472;-68
2022/12/11 07:20:33;;;;;;;1999.90;999.90;;;-1.20;99.90;;;;;;5054560;28;20454;-67
2022/12/11 07:23:00;;;;;;;1999.90;999.90;;;-1.10;99.90;;;;;;5055511;28;20482;-69
2022/12/11 07:25:27;;;;;;;1999.90;999.90;;;-1.10;99.90;;;;;;5048226;28;20458;-68
2022/12/11 07:27:53;;;;;;;1999.90;999.90;;;-1.10;99.90;;;;;;5051648;28;20470;-68
2022/12/11 07:30:21;;;;;;;1999.90;999.90;;;-1.10;99.90;;;;;;5052268;28;20482;-67
2022/12/11 07:32:48;;;;;;;1999.90;999.90;;;-1.10;99.90;;;;;;5053305;28;20482;-68
2022/12/11 07:35:15;;;;;;;1999.90;999.90;;;-1.00;99.90;;;;;;5053173;28;20549;-69
2022/12/11 07:37:43;;;;;;;1999.90;999.90;;;-1.00;99.90;;;;;;5051809;28;20931;-68
2022/12/11 07:40:11;;;;;;;1999.90;999.90;;;-1.00;99.90;;;;;;5054982;28;20462;-68
2022/12/11 07:42:37;;;;;;;1999.90;999.90;;;-0.90;99.90;;;;;;5051331;28;20470;-69
2022/12/11 07:45:06;;;;;;;1999.90;999.90;;;-0.90;99.90;;;;;;5068034;28;20445;-68
2022/12/11 07:47:34;;;;;;;1999.90;999.90;;;-0.90;99.90;;;;;;5052316;28;20557;-68
2022/12/11 07:50:00;;;;;;;1999.90;999.90;;;-1.00;99.90;;;;;;5051705;28;21021;-68
2022/12/11 07:52:27;;;;;;;1999.90;999.90;;;-1.00;99.90;;;;;;5053982;28;20484;-68
2022/12/11 07:54:54;;;;;;;1999.90;999.90;;;-0.90;99.90;;;;;;5049158;28;20457;-68
2022/12/11 07:57:21;;;;;;;1999.90;999.90;;;-1.00;99.90;;;;;;5048636;28;20497;-67
2022/12/11 07:59:48;;;;;;;1999.90;999.90;;;-0.90;99.90;;;;;;5053218;28;20454;-67
2022/12/11 08:02:14;;;;;;;1999.90;999.90;;;-0.90;99.90;;;;;;5055331;28;20497;-68
2022/12/11 08:04:42;;;;;;;1999.90;999.90;;;-1.10;99.90;;;;;;5052115;28;20466;-68
2022/12/11 08:07:09;;;;;;;1999.90;999.90;;;-1.10;99.90;;;;;;5052971;28;20466;-68
2022/12/11 08:09:36;;;;;;;1999.90;999.90;;;-1.10;99.90;;;;;;5053627;28;20561;-68
2022/12/11 08:12:03;;;;;;;1999.90;999.90;;;-1.00;99.90;;;;;;5051131;28;20486;-67
2022/12/11 08:14:30;;;;;;;1999.90;999.90;;;-1.10;99.90;;;;;;5053184;28;20461;-70
2022/12/11 08:16:58;;;;;;;1999.90;999.90;;;-1.10;99.90;;;;;;5050820;28;20472;-69
2022/12/11 08:19:25;;;;;;;1999.90;999.90;;;-1.10;99.90;;;;;;5056129;28;20505;-68
2022/12/11 08:21:53;;;;;;;1999.90;999.90;;;-1.10;99.90;;;;;;5051743;28;20494;-69
2022/12/11 08:24:20;;;;;;;1999.90;999.90;;;-1.10;99.90;;;;;;5053239;28;20979;-68
2022/12/11 08:26:47;;;;;;;1999.90;999.90;;;-1.00;99.90;;;;;;5053801;28;20458;-68
2022/12/11 08:29:14;;;;;;;1999.90;999.90;;;-0.90;99.90;;;;;;5054410;28;20536;-67
2022/12/11 08:31:42;;;;;;;1999.90;999.90;;;-0.90;99.90;;;;;;5049612;28;20458;-68
2022/12/11 08:34:12;;;;;;;1999.90;999.90;;;-0.90;99.90;;;;;;5054207;28;20458;-68
2022/12/11 08:36:39;;;;;;;1999.90;999.90;;;-0.80;99.90;;;;;;5052445;28;20883;-68
2022/12/11 08:39:08;;;;;;;1999.90;999.90;;;-0.80;99.90;;;;;;5052338;28;20459;-68
2022/12/11 08:41:34;;;;;;;1999.90;999.90;;;-0.80;99.90;;;;;;5047666;28;20465;-68
2022/12/11 08:44:01;;;;;;;1999.90;999.90;;;-0.80;99.90;;;;;;5047381;28;20441;-68
2022/12/11 08:46:29;;;;;;;1999.90;999.90;;;-0.90;99.90;;;;;;5062510;28;20435;-69
2022/12/11 08:48:57;;;;;;;1999.90;999.90;;;-0.80;99.90;;;;;;5054772;28;20503;-69
2022/12/11 08:51:26;;;;;;;1999.90;999.90;;;-0.80;99.90;;;;;;5054731;28;20466;-68
2022/12/11 08:53:55;;;;;;;1999.90;999.90;;;-0.80;99.90;;;;;;5051907;28;20490;-68
2022/12/11 08:56:24;;;;;;;1999.90;999.90;;;-0.80;99.90;;;;;;5052177;28;20458;-69
2022/12/11 08:58:51;;;;;;;1999.90;999.90;;;-0.70;99.90;;;;;;5051106;28;20467;-69
2022/12/11 09:01:21;;;;;;;1999.90;999.90;;;-0.70;99.90;;;;;;5048749;28;20485;-68
2022/12/11 09:03:48;;;;;;;1999.90;999.90;;;-0.70;99.90;;;;;;5045161;28;20477;-68
2022/12/11 09:06:17;;;;;;;1999.90;999.90;;;-0.70;99.90;;;;;;5046884;28;20958;-68
2022/12/11 09:08:45;;;;;;;1999.90;999.90;;;-0.60;99.90;;;;;;5047250;28;20978;-69
2022/12/11 09:11:14;;;;;;;1999.90;999.90;;;-0.30;99.90;;;;;;5051287;28;20982;-69
2022/12/11 09:13:42;;;;;;;1999.90;999.90;;;-0.30;99.90;;;;;;5049715;28;20482;-68
2022/12/11 09:16:11;;;;;;;1999.90;999.90;;;-0.40;99.90;;;;;;5051427;28;20528;-70
2022/12/11 09:18:39;;;;;;;1999.90;999.90;;;-0.50;99.90;;;;;;5051090;28;20454;-69
2022/12/11 09:21:07;;;;;;;1999.90;999.90;;;-0.60;99.90;;;;;;5051619;28;20454;-69
2022/12/11 09:23:34;;;;;;;1999.90;999.90;;;-0.70;99.90;;;;;;5051923;28;20474;-68
2022/12/11 09:26:03;;;;;;;1999.90;999.90;;;-0.50;99.90;;;;;;5050754;28;20460;-68
2022/12/11 09:28:31;;;;;;;1999.90;999.90;;;-0.40;99.90;;;;;;5048611;28;20464;-68
2022/12/11 09:30:59;;;;;;;1999.90;999.90;;;-0.60;99.90;;;;;;5047576;28;20482;-68
2022/12/11 09:33:26;;;;;;;1999.90;999.90;;;-0.70;99.90;;;;;;5048068;28;20911;-68
2022/12/11 09:35:59;;;;;;;1999.90;999.90;;;-0.60;99.90;;;;;;5051679;28;20466;-68
2022/12/11 09:38:26;;;;;;;1999.90;999.90;;;-0.40;99.90;;;;;;5048948;28;20462;-68
2022/12/11 09:40:53;;;;;;;1999.90;999.90;;;-0.40;99.90;;;;;;5051203;28;20459;-68
2022/12/11 09:43:33;;;;;;;1999.90;999.90;;;-0.30;99.90;;;;;;5049288;28;20482;-66
2022/12/11 09:46:04;;;;;;;1999.90;999.90;;;-0.20;99.90;;;;;;5047716;28;20458;-66
2022/12/11 09:48:34;;;;;;;1999.90;999.90;;;0.00;99.90;;;;;;5051892;28;20833;-68
2022/12/11 09:51:05;;;;;;;1999.90;999.90;;;-0.50;99.90;;;;;;5053968;28;20478;-67
2022/12/11 09:53:36;;;;;;;1999.90;999.90;;;-0.40;99.90;;;;;;5053696;28;20478;-67
2022/12/11 09:56:12;;;;;;;1999.90;999.90;;;-0.50;99.90;;;;;;5053406;28;20443;-67
2022/12/11 09:58:53;;;;;;;1999.90;999.90;;;-0.30;99.90;;;;;;5049966;28;21203;-68
2022/12/11 10:01:26;;;;;;;1999.90;999.90;;;-0.30;99.90;;;;;;5049069;28;20883;-68
2022/12/11 10:04:14;;;;;;;1999.90;999.90;;;-0.10;99.90;;;;;;5049347;28;20477;-67
2022/12/11 10:06:47;;;;;;;1999.90;999.90;;;-0.20;99.90;;;;;;5050006;28;20450;-65
2022/12/11 10:09:19;;;;;;;1999.90;999.90;;;-0.20;99.90;;;;;;5048635;28;20845;-67
2022/12/11 10:11:55;;;;;;;1999.90;999.90;;;-0.10;99.90;;;;;;5051212;28;20481;-67
2022/12/11 10:14:28;;;;;;;1999.90;999.90;;;0.10;99.90;;;;;;5052059;28;20469;-67
2022/12/11 10:17:02;;;;;;;1999.90;999.90;;;0.20;99.90;;;;;;5051563;28;21048;-67
2022/12/11 10:19:31;;;;;;;1999.90;999.90;;;0.10;99.90;;;;;;5049949;28;20458;-67
2022/12/11 10:22:00;;;;;;;1999.90;999.90;;;0.00;99.90;;;;;;5050904;28;20474;-68
2022/12/11 10:24:36;;;;;;;1999.90;999.90;;;-0.10;99.90;;;;;;5048652;28;20481;-67
2022/12/11 10:27:14;;;;;;;1999.90;999.90;;;0.00;99.90;;;;;;5048053;28;20462;-67
2022/12/11 10:29:41;;;;;;;1999.90;999.90;;;0.10;99.90;;;;;;5048218;28;20466;-66
2022/12/11 10:32:21;;;;;;;1999.90;999.90;;;0.20;99.90;;;;;;5047009;28;20509;-68
2022/12/11 10:34:51;;;;;;;1999.90;999.90;;;0.20;99.90;;;;;;5048879;28;21153;-67
2022/12/11 10:37:17;;;;;;;1999.90;999.90;;;0.30;99.90;;;;;;5054499;28;20462;-66
2022/12/11 10:39:45;;;;;;;1999.90;999.90;;;0.30;99.90;;;;;;5060935;28;20545;-68
2022/12/11 10:42:18;;;;;;;1999.90;999.90;;;0.20;99.90;;;;;;5061417;28;20485;-68
2022/12/11 10:44:56;;;;;;;1999.90;999.90;;;0.20;99.90;;;;;;5063516;28;20459;-67
2022/12/11 10:47:24;;;;;;;1999.90;999.90;;;0.10;99.90;;;;;;5067383;28;20512;-68
2022/12/11 10:49:54;;;;;;;1999.90;999.90;;;0.30;99.90;;;;;;5060434;28;20485;-66
2022/12/11 10:52:23;;;;;;;1999.90;999.90;;;0.30;99.90;;;;;;5056015;28;20504;-66
2022/12/11 10:54:58;;;;;;;1999.90;999.90;;;0.30;99.90;;;;;;5055387;28;20454;-66
2022/12/11 10:57:29;;;;;;;1999.90;999.90;;;0.10;99.90;;;;;;5052556;28;20457;-68
2022/12/11 10:59:56;;;;;;;1999.90;999.90;;;0.20;99.90;;;;;;5052189;28;20451;-68
2022/12/11 11:02:27;;;;;;;1999.90;999.90;;;0.20;99.90;;;;;;5052013;28;20561;-67
2022/12/11 11:04:56;;;;;;;1999.90;999.90;;;-0.10;99.90;;;;;;5049946;28;20450;-68
2022/12/11 11:07:24;;;;;;;1999.90;999.90;;;-0.20;99.90;;;;;;5050241;28;20972;-67
2022/12/11 11:10:02;;;;;;;1999.90;999.90;;;-0.10;99.90;;;;;;5049215;28;20482;-68
2022/12/11 11:12:29;;;;;;;1999.90;999.90;;;0.00;99.90;;;;;;5047277;28;20485;-67
2022/12/11 11:15:00;;;;;;;1999.90;999.90;;;0.20;99.90;;;;;;5047259;28;20458;-68
2022/12/11 11:17:28;;;;;;;1999.90;999.90;;;0.20;99.90;;;;;;5047778;28;20958;-67
2022/12/11 11:19:58;;;;;;;1999.90;999.90;;;0.10;99.90;;;;;;5050635;28;20469;-67
2022/12/11 11:22:25;;;;;;;1999.90;999.90;;;0.30;99.90;;;;;;5048536;28;21168;-67
2022/12/11 11:24:55;;;;;;;1999.90;999.90;;;0.20;99.90;;;;;;5048162;28;20458;-67
2022/12/11 11:27:29;;;;;;;1999.90;999.90;;;0.30;99.90;;;;;;5049838;28;20462;-68
2022/12/11 11:29:58;;;;;;;1999.90;999.90;;;0.30;99.90;;;;;;5048562;28;20473;-68
2022/12/11 11:32:33;;;;;;;1999.90;999.90;;;0.20;99.90;;;;;;5049098;28;20520;-67
2022/12/11 11:35:18;;;;;;;1999.90;999.90;;;0.20;99.90;;;;;;5047027;28;20476;-67
2022/12/11 11:37:53;;;;;;;1999.90;999.90;;;0.10;99.90;;;;;;5048787;28;20512;-66
2022/12/11 11:40:24;;;;;;;1999.90;999.90;;;-0.10;99.90;;;;;;5047763;28;20457;-67
2022/12/11 11:43:02;;;;;;;1999.90;999.90;;;-0.10;99.90;;;;;;5044390;28;20469;-67
2022/12/11 11:45:34;;;;;;;1999.90;999.90;;;-0.20;99.90;;;;;;5058158;28;20965;-67
2022/12/11 11:48:13;;;;;;;1999.90;999.90;;;-0.10;99.90;;;;;;5053429;28;20465;-67
2022/12/11 11:50:44;;;;;;;1999.90;999.90;;;0.00;99.90;;;;;;5049641;28;20501;-67
2022/12/11 11:53:17;;;;;;;1999.90;999.90;;;-0.10;99.90;;;;;;5046447;28;20492;-68
2022/12/11 11:55:54;;;;;;;1999.90;999.90;;;0.00;99.90;;;;;;5046530;28;20481;-66
2022/12/11 11:58:26;;;;;;;1999.90;999.90;;;0.00;99.90;;;;;;5048204;28;20556;-66
2022/12/11 12:00:54;;;;;;;1999.90;999.90;;;0.10;99.90;;;;;;5047693;28;21133;-67
2022/12/11 12:03:24;;;;;;;1999.90;999.90;;;0.10;99.90;;;;;;5046998;28;20490;-68
2022/12/11 12:05:57;;;;;;;1999.90;999.90;;;0.20;99.90;;;;;;5047076;28;20450;-67
2022/12/11 12:08:41;;;;;;;1999.90;999.90;;;0.20;99.90;;;;;;5047653;28;20459;-67
2022/12/11 12:11:17;;;;;;;1999.90;999.90;;;0.30;99.90;;;;;;5047057;28;20494;-67
2022/12/11 12:13:53;;;;;;;1999.90;999.90;;;0.40;99.90;;;;;;5048307;28;20485;-67
2022/12/11 12:16:27;;;;;;;1999.90;999.90;;;0.40;99.90;;;;;;5045884;28;20493;-67
2022/12/11 12:19:07;;;;;;;1999.90;999.90;;;0.20;99.90;;;;;;5043679;28;20458;-67
2022/12/11 12:21:37;;;;;;;1999.90;999.90;;;0.10;99.90;;;;;;5047814;28;20537;-67